sensor_id;sensor_type;location;lat;lon;timestamp;temperature;humidity
15087;DHT22;7642;48.478;8.952;2022-09-09T00:01:04;13.10;99.90
15087;DHT22;7642;48.478;8.952;2022-09-09T00:03:44;13.10;99.90
15087;DHT22;7642;48.478;8.952;2022-09-09T00:06:28;13.10;99.90
15087;DHT22;7642;48.478;8.952;2022-09-09T00:09:06;13.30;99.90
15087;DHT22;7642;48.478;8.952;2022-09-09T00:14:45;13.10;99.90
15087;DHT22;7642;48.478;8.952;2022-09-09T00:20:12;13.00;99.90
15087;DHT22;7642;48.478;8.952;2022-09-09T00:22:40;13.10;99.90
15087;DHT22;7642;48.478;8.952;2022-09-09T00:25:13;13.10;99.90
15087;DHT22;7642;48.478;8.952;2022-09-09T00:27:46;13.20;99.90
15087;DHT22;7642;48.478;8.952;2022-09-09T00:30:27;13.20;99.90
15087;DHT22;7642;48.478;8.952;2022-09-09T00:32:59;13.10;99.90
15087;DHT22;7642;48.478;8.952;2022-09-09T00:35:31;13.00;99.90
15087;DHT22;7642;48.478;8.952;2022-09-09T00:40:58;13.00;99.90
15087;DHT22;7642;48.478;8.952;2022-09-09T00:43:37;12.90;99.90
15087;DHT22;7642;48.478;8.952;2022-09-09T01:05:29;13.00;99.90
15087;DHT22;7642;48.478;8.952;2022-09-09T01:08:01;13.00;99.90
15087;DHT22;7642;48.478;8.952;2022-09-09T01:10:50;13.00;99.90
15087;DHT22;7642;48.478;8.952;2022-09-09T01:13:27;12.80;99.90
15087;DHT22;7642;48.478;8.952;2022-09-09T01:15:57;12.70;99.90
15087;DHT22;7642;48.478;8.952;2022-09-09T01:18:27;12.70;99.90
15087;DHT22;7642;48.478;8.952;2022-09-09T01:21:43;12.60;99.90
15087;DHT22;7642;48.478;8.952;2022-09-09T01:24:42;12.60;99.90
15087;DHT22;7642;48.478;8.952;2022-09-09T01:27:09;12.60;99.90
15087;DHT22;7642;48.478;8.952;2022-09-09T01:29:36;12.50;99.90
15087;DHT22;7642;48.478;8.952;2022-09-09T01:32:37;12.60;99.90
15087;DHT22;7642;48.478;8.952;2022-09-09T01:34:50;12.60;99.90
15087;DHT22;7642;48.478;8.952;2022-09-09T01:37:16;12.60;99.90
15087;DHT22;7642;48.478;8.952;2022-09-09T01:39:43;12.70;99.90
15087;DHT22;7642;48.478;8.952;2022-09-09T01:42:13;12.50;99.90
15087;DHT22;7642;48.478;8.952;2022-09-09T01:44:39;12.50;99.90
15087;DHT22;7642;48.478;8.952;2022-09-09T01:47:06;12.60;99.90
15087;DHT22;7642;48.478;8.952;2022-09-09T01:49:32;12.50;99.90
15087;DHT22;7642;48.478;8.952;2022-09-09T01:52:01;12.50;99.90
15087;DHT22;7642;48.478;8.952;2022-09-09T01:54:28;12.60;99.90
15087;DHT22;7642;48.478;8.952;2022-09-09T02:08:11;12.70;99.90
15087;DHT22;7642;48.478;8.952;2022-09-09T02:11:01;12.70;99.90
15087;DHT22;7642;48.478;8.952;2022-09-09T02:13:29;13.20;99.90
15087;DHT22;7642;48.478;8.952;2022-09-09T02:16:08;12.80;99.90
15087;DHT22;7642;48.478;8.952;2022-09-09T02:18:54;12.80;99.90
15087;DHT22;7642;48.478;8.952;2022-09-09T02:21:22;12.80;99.90
15087;DHT22;7642;48.478;8.952;2022-09-09T02:23:49;12.60;99.90
15087;DHT22;7642;48.478;8.952;2022-09-09T02:26:19;12.90;99.90
15087;DHT22;7642;48.478;8.952;2022-09-09T02:28:49;12.60;99.90
15087;DHT22;7642;48.478;8.952;2022-09-09T02:31:18;12.60;99.90
15087;DHT22;7642;48.478;8.952;2022-09-09T02:33:50;12.70;99.90
15087;DHT22;7642;48.478;8.952;2022-09-09T02:36:18;12.70;99.90
15087;DHT22;7642;48.478;8.952;2022-09-09T02:38:47;12.70;99.90
15087;DHT22;7642;48.478;8.952;2022-09-09T02:41:24;12.90;99.90
15087;DHT22;7642;48.478;8.952;2022-09-09T02:43:51;12.90;99.90
15087;DHT22;7642;48.478;8.952;2022-09-09T02:49:02;13.00;99.90
15087;DHT22;7642;48.478;8.952;2022-09-09T02:51:35;13.00;99.90
15087;DHT22;7642;48.478;8.952;2022-09-09T02:56:30;13.00;99.90
15087;DHT22;7642;48.478;8.952;2022-09-09T02:58:59;13.00;99.90
15087;DHT22;7642;48.478;8.952;2022-09-09T03:01:25;13.00;99.90
15087;DHT22;7642;48.478;8.952;2022-09-09T03:03:50;13.00;99.90
15087;DHT22;7642;48.478;8.952;2022-09-09T03:06:16;12.80;99.90
15087;DHT22;7642;48.478;8.952;2022-09-09T03:08:42;13.10;99.90
15087;DHT22;7642;48.478;8.952;2022-09-09T03:11:08;13.00;99.90
15087;DHT22;7642;48.478;8.952;2022-09-09T03:13:34;13.10;99.90
15087;DHT22;7642;48.478;8.952;2022-09-09T03:16:00;13.10;99.90
15087;DHT22;7642;48.478;8.952;2022-09-09T03:18:26;13.10;99.90
15087;DHT22;7642;48.478;8.952;2022-09-09T03:20:53;13.10;99.90
15087;DHT22;7642;48.478;8.952;2022-09-09T03:23:19;13.20;99.90
15087;DHT22;7642;48.478;8.952;2022-09-09T03:25:48;13.20;99.90
15087;DHT22;7642;48.478;8.952;2022-09-09T03:28:14;13.30;99.90
15087;DHT22;7642;48.478;8.952;2022-09-09T03:30:40;13.40;99.90
15087;DHT22;7642;48.478;8.952;2022-09-09T03:33:06;13.40;99.90
15087;DHT22;7642;48.478;8.952;2022-09-09T03:35:31;13.50;99.90
15087;DHT22;7642;48.478;8.952;2022-09-09T03:37:57;13.60;99.90
15087;DHT22;7642;48.478;8.952;2022-09-09T03:40:22;13.30;99.90
15087;DHT22;7642;48.478;8.952;2022-09-09T03:42:48;13.20;99.90
15087;DHT22;7642;48.478;8.952;2022-09-09T03:45:14;13.20;99.90
15087;DHT22;7642;48.478;8.952;2022-09-09T03:47:39;13.20;99.90
15087;DHT22;7642;48.478;8.952;2022-09-09T03:50:06;14.00;99.90
15087;DHT22;7642;48.478;8.952;2022-09-09T03:52:38;13.00;99.90
15087;DHT22;7642;48.478;8.952;2022-09-09T03:55:05;13.00;99.90
15087;DHT22;7642;48.478;8.952;2022-09-09T03:57:31;12.90;99.90
15087;DHT22;7642;48.478;8.952;2022-09-09T03:59:57;12.90;99.90
15087;DHT22;7642;48.478;8.952;2022-09-09T04:02:23;12.80;99.90
15087;DHT22;7642;48.478;8.952;2022-09-09T04:04:49;12.80;99.90
15087;DHT22;7642;48.478;8.952;2022-09-09T04:07:14;12.80;99.90
15087;DHT22;7642;48.478;8.952;2022-09-09T04:09:40;12.70;99.90
15087;DHT22;7642;48.478;8.952;2022-09-09T04:12:05;12.80;99.90
15087;DHT22;7642;48.478;8.952;2022-09-09T04:14:32;12.80;99.90
15087;DHT22;7642;48.478;8.952;2022-09-09T04:16:57;11.20;99.90
15087;DHT22;7642;48.478;8.952;2022-09-09T04:19:25;12.80;99.90
15087;DHT22;7642;48.478;8.952;2022-09-09T04:21:50;12.90;99.90
15087;DHT22;7642;48.478;8.952;2022-09-09T04:24:17;12.80;99.90
15087;DHT22;7642;48.478;8.952;2022-09-09T04:26:43;12.90;99.90
15087;DHT22;7642;48.478;8.952;2022-09-09T04:29:09;13.00;99.90
15087;DHT22;7642;48.478;8.952;2022-09-09T04:31:35;13.10;99.90
15087;DHT22;7642;48.478;8.952;2022-09-09T04:34:00;13.00;99.90
15087;DHT22;7642;48.478;8.952;2022-09-09T04:36:31;13.10;99.90
15087;DHT22;7642;48.478;8.952;2022-09-09T04:38:57;13.10;99.90
15087;DHT22;7642;48.478;8.952;2022-09-09T04:41:23;13.10;99.90
15087;DHT22;7642;48.478;8.952;2022-09-09T04:43:49;13.20;99.90
15087;DHT22;7642;48.478;8.952;2022-09-09T04:46:14;13.20;99.90
15087;DHT22;7642;48.478;8.952;2022-09-09T04:48:42;13.20;99.90
15087;DHT22;7642;48.478;8.952;2022-09-09T04:51:12;13.20;99.90
15087;DHT22;7642;48.478;8.952;2022-09-09T04:53:38;13.20;99.90
15087;DHT22;7642;48.478;8.952;2022-09-09T04:56:06;13.20;99.90
15087;DHT22;7642;48.478;8.952;2022-09-09T04:58:32;13.10;99.90
15087;DHT22;7642;48.478;8.952;2022-09-09T05:01:12;13.20;99.90
15087;DHT22;7642;48.478;8.952;2022-09-09T05:03:38;13.00;99.90
15087;DHT22;7642;48.478;8.952;2022-09-09T05:06:14;13.00;99.90
15087;DHT22;7642;48.478;8.952;2022-09-09T05:08:42;13.10;99.90
15087;DHT22;7642;48.478;8.952;2022-09-09T05:11:22;13.30;99.90
15087;DHT22;7642;48.478;8.952;2022-09-09T05:13:51;13.10;99.90
15087;DHT22;7642;48.478;8.952;2022-09-09T05:16:18;13.20;99.90
15087;DHT22;7642;48.478;8.952;2022-09-09T05:18:43;13.20;99.90
15087;DHT22;7642;48.478;8.952;2022-09-09T05:21:10;13.20;99.90
15087;DHT22;7642;48.478;8.952;2022-09-09T05:23:37;13.20;99.90
15087;DHT22;7642;48.478;8.952;2022-09-09T05:26:04;13.20;99.90
15087;DHT22;7642;48.478;8.952;2022-09-09T05:28:29;13.30;99.90
15087;DHT22;7642;48.478;8.952;2022-09-09T05:31:00;13.70;99.90
15087;DHT22;7642;48.478;8.952;2022-09-09T05:33:29;13.40;99.90
15087;DHT22;7642;48.478;8.952;2022-09-09T05:35:59;13.50;99.90
15087;DHT22;7642;48.478;8.952;2022-09-09T05:38:25;13.50;99.90
15087;DHT22;7642;48.478;8.952;2022-09-09T05:40:52;13.60;99.90
15087;DHT22;7642;48.478;8.952;2022-09-09T05:43:19;13.70;99.90
15087;DHT22;7642;48.478;8.952;2022-09-09T05:45:48;13.70;99.90
15087;DHT22;7642;48.478;8.952;2022-09-09T05:48:23;13.70;99.90
15087;DHT22;7642;48.478;8.952;2022-09-09T05:50:53;13.70;99.90
15087;DHT22;7642;48.478;8.952;2022-09-09T05:53:20;13.80;99.90
15087;DHT22;7642;48.478;8.952;2022-09-09T05:55:45;13.90;99.90
15087;DHT22;7642;48.478;8.952;2022-09-09T05:58:11;13.90;99.90
15087;DHT22;7642;48.478;8.952;2022-09-09T06:00:37;14.40;99.90
15087;DHT22;7642;48.478;8.952;2022-09-09T06:03:03;14.40;99.90
15087;DHT22;7642;48.478;8.952;2022-09-09T06:05:29;14.10;99.90
15087;DHT22;7642;48.478;8.952;2022-09-09T06:07:55;14.10;99.90
15087;DHT22;7642;48.478;8.952;2022-09-09T06:10:21;14.20;99.90
15087;DHT22;7642;48.478;8.952;2022-09-09T06:12:47;14.20;99.90
15087;DHT22;7642;48.478;8.952;2022-09-09T06:15:13;14.30;99.90
15087;DHT22;7642;48.478;8.952;2022-09-09T06:17:38;14.30;99.90
15087;DHT22;7642;48.478;8.952;2022-09-09T06:20:05;14.50;99.90
15087;DHT22;7642;48.478;8.952;2022-09-09T06:22:31;14.50;99.90
15087;DHT22;7642;48.478;8.952;2022-09-09T06:24:56;14.50;99.90
15087;DHT22;7642;48.478;8.952;2022-09-09T06:27:22;14.70;99.90
15087;DHT22;7642;48.478;8.952;2022-09-09T06:29:48;14.60;99.90
15087;DHT22;7642;48.478;8.952;2022-09-09T06:32:13;14.60;99.90
15087;DHT22;7642;48.478;8.952;2022-09-09T06:34:39;15.00;99.90
15087;DHT22;7642;48.478;8.952;2022-09-09T06:37:05;14.80;99.90
15087;DHT22;7642;48.478;8.952;2022-09-09T06:39:31;14.90;99.90
15087;DHT22;7642;48.478;8.952;2022-09-09T06:41:57;15.00;99.90
15087;DHT22;7642;48.478;8.952;2022-09-09T06:44:24;15.10;99.90
15087;DHT22;7642;48.478;8.952;2022-09-09T06:46:52;15.10;99.90
15087;DHT22;7642;48.478;8.952;2022-09-09T06:49:17;15.20;99.90
15087;DHT22;7642;48.478;8.952;2022-09-09T06:51:43;15.20;99.90
15087;DHT22;7642;48.478;8.952;2022-09-09T06:54:10;15.30;99.90
15087;DHT22;7642;48.478;8.952;2022-09-09T06:56:38;15.40;99.90
15087;DHT22;7642;48.478;8.952;2022-09-09T06:59:06;15.80;99.90
15087;DHT22;7642;48.478;8.952;2022-09-09T07:01:35;15.50;99.90
15087;DHT22;7642;48.478;8.952;2022-09-09T07:04:01;15.70;99.90
15087;DHT22;7642;48.478;8.952;2022-09-09T07:06:34;15.80;99.90
15087;DHT22;7642;48.478;8.952;2022-09-09T07:09:02;15.80;99.90
15087;DHT22;7642;48.478;8.952;2022-09-09T07:11:31;16.00;99.90
15087;DHT22;7642;48.478;8.952;2022-09-09T07:13:58;16.10;99.90
15087;DHT22;7642;48.478;8.952;2022-09-09T07:16:25;16.10;99.90
15087;DHT22;7642;48.478;8.952;2022-09-09T07:18:52;16.20;99.90
15087;DHT22;7642;48.478;8.952;2022-09-09T07:21:18;16.20;99.90
15087;DHT22;7642;48.478;8.952;2022-09-09T07:23:47;16.20;99.90
15087;DHT22;7642;48.478;8.952;2022-09-09T07:26:17;16.30;99.90
15087;DHT22;7642;48.478;8.952;2022-09-09T07:28:45;16.40;99.90
15087;DHT22;7642;48.478;8.952;2022-09-09T07:31:32;16.50;99.90
15087;DHT22;7642;48.478;8.952;2022-09-09T07:33:59;16.70;99.90
15087;DHT22;7642;48.478;8.952;2022-09-09T07:36:30;16.90;99.90
15087;DHT22;7642;48.478;8.952;2022-09-09T07:38:58;17.10;99.90
15087;DHT22;7642;48.478;8.952;2022-09-09T07:41:27;17.50;99.90
15087;DHT22;7642;48.478;8.952;2022-09-09T07:43:54;17.30;99.90
15087;DHT22;7642;48.478;8.952;2022-09-09T07:46:22;17.40;99.90
15087;DHT22;7642;48.478;8.952;2022-09-09T07:48:50;17.70;99.90
15087;DHT22;7642;48.478;8.952;2022-09-09T07:51:22;17.60;99.90
15087;DHT22;7642;48.478;8.952;2022-09-09T07:53:51;17.60;99.90
15087;DHT22;7642;48.478;8.952;2022-09-09T07:56:18;17.70;99.90
15087;DHT22;7642;48.478;8.952;2022-09-09T07:58:47;17.60;99.90
15087;DHT22;7642;48.478;8.952;2022-09-09T08:03:52;17.50;99.90
15087;DHT22;7642;48.478;8.952;2022-09-09T08:06:17;17.40;99.90
15087;DHT22;7642;48.478;8.952;2022-09-09T08:08:43;17.50;99.90
15087;DHT22;7642;48.478;8.952;2022-09-09T08:11:11;17.40;99.90
15087;DHT22;7642;48.478;8.952;2022-09-09T08:13:38;17.50;99.90
15087;DHT22;7642;48.478;8.952;2022-09-09T08:16:09;17.70;99.90
15087;DHT22;7642;48.478;8.952;2022-09-09T08:18:35;18.00;99.90
15087;DHT22;7642;48.478;8.952;2022-09-09T08:21:05;18.00;99.90
15087;DHT22;7642;48.478;8.952;2022-09-09T08:23:52;18.10;99.90
15087;DHT22;7642;48.478;8.952;2022-09-09T08:26:23;18.20;99.90
15087;DHT22;7642;48.478;8.952;2022-09-09T08:28:50;18.40;99.90
15087;DHT22;7642;48.478;8.952;2022-09-09T08:31:20;18.30;99.90
15087;DHT22;7642;48.478;8.952;2022-09-09T08:33:47;18.80;99.90
15087;DHT22;7642;48.478;8.952;2022-09-09T08:36:18;18.50;99.90
15087;DHT22;7642;48.478;8.952;2022-09-09T08:38:47;18.50;99.90
15087;DHT22;7642;48.478;8.952;2022-09-09T08:44:29;18.50;99.90
15087;DHT22;7642;48.478;8.952;2022-09-09T08:55:46;19.10;99.90
15087;DHT22;7642;48.478;8.952;2022-09-09T08:58:16;19.50;99.90
15087;DHT22;7642;48.478;8.952;2022-09-09T09:12:06;20.20;99.90
15087;DHT22;7642;48.478;8.952;2022-09-09T09:14:34;20.20;99.90
15087;DHT22;7642;48.478;8.952;2022-09-09T09:17:06;20.20;99.90
15087;DHT22;7642;48.478;8.952;2022-09-09T09:19:35;20.50;99.90
15087;DHT22;7642;48.478;8.952;2022-09-09T09:22:31;20.60;99.90
15087;DHT22;7642;48.478;8.952;2022-09-09T09:25:13;20.90;99.90
15087;DHT22;7642;48.478;8.952;2022-09-09T09:30:35;21.10;99.90
15087;DHT22;7642;48.478;8.952;2022-09-09T09:33:12;21.00;99.90
15087;DHT22;7642;48.478;8.952;2022-09-09T09:35:40;20.80;99.90
15087;DHT22;7642;48.478;8.952;2022-09-09T09:38:26;21.20;99.90
15087;DHT22;7642;48.478;8.952;2022-09-09T09:40:54;21.50;99.90
15087;DHT22;7642;48.478;8.952;2022-09-09T09:43:53;21.50;99.90
15087;DHT22;7642;48.478;8.952;2022-09-09T09:46:21;21.60;99.90
15087;DHT22;7642;48.478;8.952;2022-09-09T09:49:09;21.90;99.90
15087;DHT22;7642;48.478;8.952;2022-09-09T09:51:35;22.00;99.90
15087;DHT22;7642;48.478;8.952;2022-09-09T09:54:28;22.00;99.90
15087;DHT22;7642;48.478;8.952;2022-09-09T09:56:55;21.70;99.90
15087;DHT22;7642;48.478;8.952;2022-09-09T10:02:16;21.80;99.90
15087;DHT22;7642;48.478;8.952;2022-09-09T10:04:42;22.30;99.90
15087;DHT22;7642;48.478;8.952;2022-09-09T10:07:15;22.30;99.90
15087;DHT22;7642;48.478;8.952;2022-09-09T10:09:42;22.20;99.90
15087;DHT22;7642;48.478;8.952;2022-09-09T10:15:09;22.10;99.90
15087;DHT22;7642;48.478;8.952;2022-09-09T10:32:03;22.10;99.90
15087;DHT22;7642;48.478;8.952;2022-09-09T10:40:36;22.50;99.90
15087;DHT22;7642;48.478;8.952;2022-09-09T10:43:33;22.30;99.90
15087;DHT22;7642;48.478;8.952;2022-09-09T10:51:54;22.90;99.90
15087;DHT22;7642;48.478;8.952;2022-09-09T11:00:03;22.40;99.90
15087;DHT22;7642;48.478;8.952;2022-09-09T11:02:32;22.20;99.90
15087;DHT22;7642;48.478;8.952;2022-09-09T11:07:41;22.90;99.90
15087;DHT22;7642;48.478;8.952;2022-09-09T11:12:57;21.70;99.90
15087;DHT22;7642;48.478;8.952;2022-09-09T11:15:42;19.90;99.90
15087;DHT22;7642;48.478;8.952;2022-09-09T11:18:19;19.60;99.90
15087;DHT22;7642;48.478;8.952;2022-09-09T11:20:49;19.70;99.90
15087;DHT22;7642;48.478;8.952;2022-09-09T11:23:24;19.70;99.90
15087;DHT22;7642;48.478;8.952;2022-09-09T11:25:56;20.00;99.90
15087;DHT22;7642;48.478;8.952;2022-09-09T11:31:24;20.40;99.90
15087;DHT22;7642;48.478;8.952;2022-09-09T11:36:58;20.70;99.90
15087;DHT22;7642;48.478;8.952;2022-09-09T11:40:07;20.90;99.90
15087;DHT22;7642;48.478;8.952;2022-09-09T11:42:35;21.50;99.90
15087;DHT22;7642;48.478;8.952;2022-09-09T11:45:24;21.50;99.90
15087;DHT22;7642;48.478;8.952;2022-09-09T11:48:01;21.60;99.90
15087;DHT22;7642;48.478;8.952;2022-09-09T11:50:35;21.90;99.90
15087;DHT22;7642;48.478;8.952;2022-09-09T11:53:19;22.10;99.90
15087;DHT22;7642;48.478;8.952;2022-09-09T11:56:10;22.10;99.90
15087;DHT22;7642;48.478;8.952;2022-09-09T11:58:41;21.50;99.90
15087;DHT22;7642;48.478;8.952;2022-09-09T12:01:15;21.60;99.90
15087;DHT22;7642;48.478;8.952;2022-09-09T12:03:48;21.50;99.90
15087;DHT22;7642;48.478;8.952;2022-09-09T12:06:27;21.70;99.90
15087;DHT22;7642;48.478;8.952;2022-09-09T12:11:50;22.10;99.90
15087;DHT22;7642;48.478;8.952;2022-09-09T12:14:54;21.60;99.90
15087;DHT22;7642;48.478;8.952;2022-09-09T12:17:31;21.80;99.90
15087;DHT22;7642;48.478;8.952;2022-09-09T12:20:26;21.90;99.90
15087;DHT22;7642;48.478;8.952;2022-09-09T12:31:12;21.10;99.90
15087;DHT22;7642;48.478;8.952;2022-09-09T12:33:44;21.00;99.90
15087;DHT22;7642;48.478;8.952;2022-09-09T12:36:23;20.90;99.90
15087;DHT22;7642;48.478;8.952;2022-09-09T12:38:50;20.80;99.90
15087;DHT22;7642;48.478;8.952;2022-09-09T12:41:28;20.50;99.90
15087;DHT22;7642;48.478;8.952;2022-09-09T12:44:08;20.50;99.90
15087;DHT22;7642;48.478;8.952;2022-09-09T12:46:43;20.40;99.90
15087;DHT22;7642;48.478;8.952;2022-09-09T12:49:32;20.40;99.90
15087;DHT22;7642;48.478;8.952;2022-09-09T12:52:25;20.40;99.90
15087;DHT22;7642;48.478;8.952;2022-09-09T12:54:52;20.40;99.90
15087;DHT22;7642;48.478;8.952;2022-09-09T12:57:19;20.80;99.90
15087;DHT22;7642;48.478;8.952;2022-09-09T12:59:47;21.40;99.90
15087;DHT22;7642;48.478;8.952;2022-09-09T13:02:26;21.70;99.90
15087;DHT22;7642;48.478;8.952;2022-09-09T13:04:53;21.90;99.90
15087;DHT22;7642;48.478;8.952;2022-09-09T13:07:20;22.30;99.90
15087;DHT22;7642;48.478;8.952;2022-09-09T13:09:47;26.40;99.90
15087;DHT22;7642;48.478;8.952;2022-09-09T13:12:19;22.80;99.90
15087;DHT22;7642;48.478;8.952;2022-09-09T13:14:48;23.30;99.90
15087;DHT22;7642;48.478;8.952;2022-09-09T13:17:25;22.90;99.90
15087;DHT22;7642;48.478;8.952;2022-09-09T13:19:54;22.40;99.90
15087;DHT22;7642;48.478;8.952;2022-09-09T13:22:31;21.80;99.90
15087;DHT22;7642;48.478;8.952;2022-09-09T13:27:38;21.70;99.90
15087;DHT22;7642;48.478;8.952;2022-09-09T13:30:40;21.80;99.90
15087;DHT22;7642;48.478;8.952;2022-09-09T13:35:47;22.80;99.90
15087;DHT22;7642;48.478;8.952;2022-09-09T13:38:15;22.70;99.90
15087;DHT22;7642;48.478;8.952;2022-09-09T13:40:58;22.20;99.90
15087;DHT22;7642;48.478;8.952;2022-09-09T13:43:25;21.90;99.90
15087;DHT22;7642;48.478;8.952;2022-09-09T13:46:00;22.20;99.40
15087;DHT22;7642;48.478;8.952;2022-09-09T13:48:27;22.60;98.90
15087;DHT22;7642;48.478;8.952;2022-09-09T13:51:03;22.70;98.10
15087;DHT22;7642;48.478;8.952;2022-09-09T13:53:33;22.90;98.50
15087;DHT22;7642;48.478;8.952;2022-09-09T13:55:59;23.30;98.30
15087;DHT22;7642;48.478;8.952;2022-09-09T13:58:25;23.50;98.90
15087;DHT22;7642;48.478;8.952;2022-09-09T14:00:52;23.60;97.80
15087;DHT22;7642;48.478;8.952;2022-09-09T14:03:18;23.10;98.40
15087;DHT22;7642;48.478;8.952;2022-09-09T14:05:45;22.90;98.00
15087;DHT22;7642;48.478;8.952;2022-09-09T14:08:22;22.50;98.80
15087;DHT22;7642;48.478;8.952;2022-09-09T14:10:49;22.50;99.20
15087;DHT22;7642;48.478;8.952;2022-09-09T14:13:14;22.80;98.40
15087;DHT22;7642;48.478;8.952;2022-09-09T14:15:40;23.20;96.90
15087;DHT22;7642;48.478;8.952;2022-09-09T14:18:11;22.70;97.10
15087;DHT22;7642;48.478;8.952;2022-09-09T14:20:37;22.20;97.60
15087;DHT22;7642;48.478;8.952;2022-09-09T14:23:02;22.90;98.30
15087;DHT22;7642;48.478;8.952;2022-09-09T14:25:28;23.10;97.70
15087;DHT22;7642;48.478;8.952;2022-09-09T14:27:54;23.50;97.30
15087;DHT22;7642;48.478;8.952;2022-09-09T14:30:19;23.50;96.50
15087;DHT22;7642;48.478;8.952;2022-09-09T14:32:45;22.80;96.60
15087;DHT22;7642;48.478;8.952;2022-09-09T14:35:10;23.00;96.60
15087;DHT22;7642;48.478;8.952;2022-09-09T14:37:37;23.30;96.50
15087;DHT22;7642;48.478;8.952;2022-09-09T14:40:04;23.80;96.40
15087;DHT22;7642;48.478;8.952;2022-09-09T14:42:30;23.60;96.00
15087;DHT22;7642;48.478;8.952;2022-09-09T14:44:55;23.70;96.30
15087;DHT22;7642;48.478;8.952;2022-09-09T14:47:21;23.70;96.40
15087;DHT22;7642;48.478;8.952;2022-09-09T14:49:47;23.70;97.00
15087;DHT22;7642;48.478;8.952;2022-09-09T14:52:15;23.00;97.20
15087;DHT22;7642;48.478;8.952;2022-09-09T14:54:41;22.90;97.20
15087;DHT22;7642;48.478;8.952;2022-09-09T14:57:07;22.80;96.80
15087;DHT22;7642;48.478;8.952;2022-09-09T14:59:32;22.50;95.60
15087;DHT22;7642;48.478;8.952;2022-09-09T15:01:59;22.70;95.00
15087;DHT22;7642;48.478;8.952;2022-09-09T15:04:29;22.70;95.20
15087;DHT22;7642;48.478;8.952;2022-09-09T15:06:54;22.40;94.90
15087;DHT22;7642;48.478;8.952;2022-09-09T15:09:20;22.40;95.40
15087;DHT22;7642;48.478;8.952;2022-09-09T15:11:46;22.30;95.50
15087;DHT22;7642;48.478;8.952;2022-09-09T15:14:11;22.10;95.70
15087;DHT22;7642;48.478;8.952;2022-09-09T15:16:38;22.00;96.40
15087;DHT22;7642;48.478;8.952;2022-09-09T15:19:04;21.80;96.50
15087;DHT22;7642;48.478;8.952;2022-09-09T15:21:32;21.60;97.20
15087;DHT22;7642;48.478;8.952;2022-09-09T15:23:58;21.60;97.90
15087;DHT22;7642;48.478;8.952;2022-09-09T15:26:25;21.40;98.00
15087;DHT22;7642;48.478;8.952;2022-09-09T15:28:51;21.20;98.40
15087;DHT22;7642;48.478;8.952;2022-09-09T15:31:18;21.10;98.00
15087;DHT22;7642;48.478;8.952;2022-09-09T15:33:49;20.90;97.30
15087;DHT22;7642;48.478;8.952;2022-09-09T15:36:27;21.10;98.10
15087;DHT22;7642;48.478;8.952;2022-09-09T15:38:54;21.10;97.30
15087;DHT22;7642;48.478;8.952;2022-09-09T15:41:21;21.10;97.40
15087;DHT22;7642;48.478;8.952;2022-09-09T15:43:50;21.10;97.30
15087;DHT22;7642;48.478;8.952;2022-09-09T15:46:35;21.10;97.80
15087;DHT22;7642;48.478;8.952;2022-09-09T15:49:08;20.80;97.10
15087;DHT22;7642;48.478;8.952;2022-09-09T15:51:42;20.70;98.00
15087;DHT22;7642;48.478;8.952;2022-09-09T15:54:08;20.50;97.80
15087;DHT22;7642;48.478;8.952;2022-09-09T15:56:33;20.50;97.70
15087;DHT22;7642;48.478;8.952;2022-09-09T15:59:00;20.40;98.00
15087;DHT22;7642;48.478;8.952;2022-09-09T16:01:29;20.30;98.30
15087;DHT22;7642;48.478;8.952;2022-09-09T16:03:56;20.40;98.80
15087;DHT22;7642;48.478;8.952;2022-09-09T16:06:23;20.40;99.10
15087;DHT22;7642;48.478;8.952;2022-09-09T16:08:51;20.40;99.30
15087;DHT22;7642;48.478;8.952;2022-09-09T16:11:25;20.50;99.20
15087;DHT22;7642;48.478;8.952;2022-09-09T16:13:52;20.50;99.50
15087;DHT22;7642;48.478;8.952;2022-09-09T16:16:21;20.50;99.80
15087;DHT22;7642;48.478;8.952;2022-09-09T16:18:52;20.50;99.90
15087;DHT22;7642;48.478;8.952;2022-09-09T16:21:24;20.40;99.90
15087;DHT22;7642;48.478;8.952;2022-09-09T16:23:51;20.30;99.90
15087;DHT22;7642;48.478;8.952;2022-09-09T16:26:17;20.40;99.90
15087;DHT22;7642;48.478;8.952;2022-09-09T16:28:43;20.10;99.90
15087;DHT22;7642;48.478;8.952;2022-09-09T16:31:13;20.10;99.90
15087;DHT22;7642;48.478;8.952;2022-09-09T16:33:39;20.10;99.90
15087;DHT22;7642;48.478;8.952;2022-09-09T16:36:07;20.00;99.90
15087;DHT22;7642;48.478;8.952;2022-09-09T16:38:33;19.90;99.90
15087;DHT22;7642;48.478;8.952;2022-09-09T16:41:01;19.80;99.90
15087;DHT22;7642;48.478;8.952;2022-09-09T16:43:27;19.70;99.90
15087;DHT22;7642;48.478;8.952;2022-09-09T16:45:53;19.70;99.90
15087;DHT22;7642;48.478;8.952;2022-09-09T16:48:18;19.50;99.90
15087;DHT22;7642;48.478;8.952;2022-09-09T16:50:45;19.50;99.90
15087;DHT22;7642;48.478;8.952;2022-09-09T16:53:11;19.40;99.90
15087;DHT22;7642;48.478;8.952;2022-09-09T16:55:41;19.50;99.90
15087;DHT22;7642;48.478;8.952;2022-09-09T16:58:09;19.50;99.90
15087;DHT22;7642;48.478;8.952;2022-09-09T17:00:35;20.10;99.90
15087;DHT22;7642;48.478;8.952;2022-09-09T17:03:01;19.50;99.90
15087;DHT22;7642;48.478;8.952;2022-09-09T17:05:27;19.50;99.90
15087;DHT22;7642;48.478;8.952;2022-09-09T17:07:54;19.60;99.90
15087;DHT22;7642;48.478;8.952;2022-09-09T17:10:23;19.60;99.90
15087;DHT22;7642;48.478;8.952;2022-09-09T17:12:49;19.60;99.90
15087;DHT22;7642;48.478;8.952;2022-09-09T17:15:14;19.60;99.90
15087;DHT22;7642;48.478;8.952;2022-09-09T17:17:40;19.60;99.90
15087;DHT22;7642;48.478;8.952;2022-09-09T17:20:09;19.50;99.90
15087;DHT22;7642;48.478;8.952;2022-09-09T17:22:35;19.40;99.90
15087;DHT22;7642;48.478;8.952;2022-09-09T17:25:00;19.40;99.90
15087;DHT22;7642;48.478;8.952;2022-09-09T17:27:26;19.40;99.90
15087;DHT22;7642;48.478;8.952;2022-09-09T17:29:51;19.30;99.90
15087;DHT22;7642;48.478;8.952;2022-09-09T17:32:17;19.30;99.90
15087;DHT22;7642;48.478;8.952;2022-09-09T17:34:43;19.30;99.90
15087;DHT22;7642;48.478;8.952;2022-09-09T17:37:10;19.50;99.90
15087;DHT22;7642;48.478;8.952;2022-09-09T17:39:35;19.10;99.90
15087;DHT22;7642;48.478;8.952;2022-09-09T17:42:01;19.20;99.90
15087;DHT22;7642;48.478;8.952;2022-09-09T17:44:26;19.10;99.90
15087;DHT22;7642;48.478;8.952;2022-09-09T17:46:53;19.60;99.90
15087;DHT22;7642;48.478;8.952;2022-09-09T17:49:19;18.90;99.90
15087;DHT22;7642;48.478;8.952;2022-09-09T17:51:46;18.90;99.90
15087;DHT22;7642;48.478;8.952;2022-09-09T17:54:15;18.90;99.90
15087;DHT22;7642;48.478;8.952;2022-09-09T17:56:42;18.80;99.90
15087;DHT22;7642;48.478;8.952;2022-09-09T17:59:09;18.80;99.90
15087;DHT22;7642;48.478;8.952;2022-09-09T18:01:37;18.70;99.90
15087;DHT22;7642;48.478;8.952;2022-09-09T18:04:08;19.20;99.90
15087;DHT22;7642;48.478;8.952;2022-09-09T18:06:37;19.40;99.90
15087;DHT22;7642;48.478;8.952;2022-09-09T18:09:06;18.60;99.90
15087;DHT22;7642;48.478;8.952;2022-09-09T18:11:35;18.60;99.90
15087;DHT22;7642;48.478;8.952;2022-09-09T18:14:03;18.60;99.90
15087;DHT22;7642;48.478;8.952;2022-09-09T18:16:31;18.50;99.90
15087;DHT22;7642;48.478;8.952;2022-09-09T18:18:59;18.50;99.90
15087;DHT22;7642;48.478;8.952;2022-09-09T18:21:25;18.50;99.90